全部
Mangaia Airport (Mangaia (Auau Enua)) MGS 天气
|
Mangaia (Auau Enua) (MGS / NCMG)
晴天
微风 |
|
24 °C |
There is no TAF data available at MGS or any nearby airports.
MGS近期METAR历史数据
| Date | Time (-10) | Flight Rules | Wind Dir. | Speed | Type | Height AGL (ft) | Visibility | Temp (°C) | Temp (°F) | Dew Point (°C) | Dew Point (°F) | Rel. Humid. | Pressure | Density Altitude | Remarks |
|---|---|---|---|---|---|---|---|---|---|---|---|---|---|---|---|
| 05-五月 | 07:00 | n/a | 110° | 10 kt | Missing | 24° | 75° | 20° | 68° | 78% | 1014 mb | 1,068 ft | |||
| 05-五月 | 06:00 | n/a | 110° | 11 kt | Missing | 24° | 75° | 20° | 68° | 78% | 1014 mb | 1,068 ft | |||
| 05-五月 | 05:00 | n/a | 100° | 9 kt | Missing | 24° | 75° | 20° | 68° | 78% | 1013 mb | 1,097 ft | |||
| 05-五月 | 04:00 | n/a | 100° | 11 kt | Missing | 24° | 75° | 20° | 68° | 78% | 1014 mb | 1,068 ft | |||
| 05-五月 | 03:00 | n/a | 100° | 9 kt | Missing | 24° | 75° | 20° | 68° | 78% | 1014 mb | 1,068 ft | |||
| 05-五月 | 02:00 | n/a | 110° | 8 kt | Missing | 25° | 77° | 20° | 68° | 74% | 1015 mb | 1,158 ft | |||
| 05-五月 | 01:00 | n/a | 110° | 8 kt | Missing | 24° | 75° | 19° | 66° | 74% | 1015 mb | 1,038 ft | |||
| 05-五月 | 00:00 | n/a | 110° | 8 kt | Missing | 24° | 75° | 19° | 66° | 74% | 1016 mb | 1,009 ft | |||
| 04-五月 | 23:00 | n/a | 110° | 10 kt | Missing | 25° | 77° | 19° | 66° | 69% | 1015 mb | 1,158 ft | |||
| 04-五月 | 22:00 | n/a | 120° | 8 kt | Missing | 25° | 77° | 19° | 66° | 69% | 1016 mb | 1,129 ft | |||
| 04-五月 | 21:00 | n/a | 110° | 10 kt | Missing | 24° | 75° | 19° | 66° | 74% | 1015 mb | 1,038 ft | |||
| 04-五月 | 20:00 | n/a | 110° | 10 kt | Missing | 24° | 75° | 19° | 66° | 74% | 1014 mb | 1,068 ft | |||
| 04-五月 | 19:00 | n/a | 120° | 9 kt | Missing | 25° | 77° | 19° | 66° | 69% | 1014 mb | 1,188 ft | |||
| 04-五月 | 18:00 | n/a | 120° | 10 kt | Missing | 25° | 77° | 17° | 62° | 61% | 1014 mb | 1,188 ft | |||
| 04-五月 | 17:00 | n/a | 120° | 9 kt | Missing | 25° | 77° | 20° | 68° | 74% | 1013 mb | 1,217 ft | |||
| 04-五月 | 16:00 | n/a | 120° | 8 kt | Missing | 25° | 77° | 19° | 66° | 69% | 1013 mb | 1,217 ft | |||
| 04-五月 | 15:00 | n/a | 120° | 11 kt | Missing | 25° | 77° | 19° | 66° | 69% | 1013 mb | 1,217 ft | |||
| 04-五月 | 14:00 | n/a | 110° | 11 kt | Missing | 26° | 78° | 20° | 68° | 70% | 1013 mb | 1,337 ft | |||
| 04-五月 | 13:00 | n/a | 120° | 10 kt | Missing | 26° | 78° | 20° | 68° | 70% | 1013 mb | 1,337 ft | |||
| 04-五月 | 12:00 | n/a | 120° | 11 kt | Missing | 27° | 80° | 20° | 68° | 66% | 1014 mb | 1,428 ft | |||
| 04-五月 | 11:00 | n/a | 110° | 10 kt | Missing | 27° | 80° | 20° | 68° | 66% | 1014 mb | 1,428 ft | |||
| 04-五月 | 10:00 | n/a | 120° | 9 kt | Missing | 25° | 77° | 20° | 68° | 74% | 1015 mb | 1,158 ft | |||
| 04-五月 | 09:00 | n/a | 120° | 9 kt | Missing | 24° | 75° | 21° | 69° | 83% | 1014 mb | 1,068 ft | |||
| 04-五月 | 08:00 | n/a | 120° | 10 kt | Missing | 24° | 75° | 21° | 69° | 83% | 1013 mb | 1,097 ft |
登录
| 您的浏览器不支持. 升级您的浏览器 |
